sensor_id;sensor_type;location;lat;lon;timestamp;pressure;altitude;pressure_sealevel;temperature;humidity
42003;BME280;27693;50.506;30.832;2023-03-14T00:00:12;99657.57;;;5.00;74.01
42003;BME280;27693;50.506;30.832;2023-03-14T00:01:18;99655.51;;;5.14;77.65
42003;BME280;27693;50.506;30.832;2023-03-14T00:02:22;99665.00;;;5.12;75.53
42003;BME280;27693;50.506;30.832;2023-03-14T00:03:25;99651.14;;;5.16;79.07
42003;BME280;27693;50.506;30.832;2023-03-14T00:04:28;99651.14;;;5.16;79.07
42003;BME280;27693;50.506;30.832;2023-03-14T00:05:33;99656.39;;;5.13;76.51
42003;BME280;27693;50.506;30.832;2023-03-14T00:06:36;99651.14;;;5.16;74.86
42003;BME280;27693;50.506;30.832;2023-03-14T00:07:39;99649.22;;;5.24;77.23
42003;BME280;27693;50.506;30.832;2023-03-14T00:08:43;99652.93;;;5.14;74.69
42003;BME280;27693;50.506;30.832;2023-03-14T00:09:46;99644.67;;;5.00;73.20
42003;BME280;27693;50.506;30.832;2023-03-14T00:10:48;99648.97;;;4.99;74.75
42003;BME280;27693;50.506;30.832;2023-03-14T00:11:52;99637.97;;;4.92;74.73
42003;BME280;27693;50.506;30.832;2023-03-14T00:12:55;99645.45;;;5.03;76.24
42003;BME280;27693;50.506;30.832;2023-03-14T00:13:57;99636.19;;;4.94;75.06
42003;BME280;27693;50.506;30.832;2023-03-14T00:15:01;99644.53;;;5.06;76.98
42003;BME280;27693;50.506;30.832;2023-03-14T00:16:12;99635.76;;;5.13;78.25
42003;BME280;27693;50.506;30.832;2023-03-14T00:17:11;99632.45;;;5.08;76.27
42003;BME280;27693;50.506;30.832;2023-03-14T00:18:15;99644.67;;;5.00;73.32
42003;BME280;27693;50.506;30.832;2023-03-14T00:19:17;99643.03;;;4.95;72.98
42003;BME280;27693;50.506;30.832;2023-03-14T00:20:20;99629.42;;;4.90;74.05
42003;BME280;27693;50.506;30.832;2023-03-14T00:21:23;99637.30;;;4.84;73.37
42003;BME280;27693;50.506;30.832;2023-03-14T00:22:26;99631.41;;;4.79;74.86
42003;BME280;27693;50.506;30.832;2023-03-14T00:23:30;99633.89;;;4.84;75.27
42003;BME280;27693;50.506;30.832;2023-03-14T00:24:33;99641.15;;;4.66;73.44
42003;BME280;27693;50.506;30.832;2023-03-14T00:25:36;99627.30;;;4.70;75.45
42003;BME280;27693;50.506;30.832;2023-03-14T00:26:38;99627.34;;;4.69;75.86
42003;BME280;27693;50.506;30.832;2023-03-14T00:27:42;99629.77;;;4.75;76.32
42003;BME280;27693;50.506;30.832;2023-03-14T00:28:44;99624.56;;;4.78;76.72
42003;BME280;27693;50.506;30.832;2023-03-14T00:29:47;99627.56;;;4.95;77.39
42003;BME280;27693;50.506;30.832;2023-03-14T00:30:50;99628.69;;;4.85;76.13
42003;BME280;27693;50.506;30.832;2023-03-14T00:31:53;99624.47;;;4.81;76.28
42003;BME280;27693;50.506;30.832;2023-03-14T00:32:55;99626.99;;;4.84;76.82
42003;BME280;27693;50.506;30.832;2023-03-14T00:33:58;99624.62;;;4.75;73.79
42003;BME280;27693;50.506;30.832;2023-03-14T00:35:00;99612.84;;;4.64;73.29
42003;BME280;27693;50.506;30.832;2023-03-14T00:36:09;99616.05;;;4.74;76.51
42003;BME280;27693;50.506;30.832;2023-03-14T00:37:12;99617.86;;;4.71;73.61
42003;BME280;27693;50.506;30.832;2023-03-14T00:38:15;99616.88;;;4.76;75.85
42003;BME280;27693;50.506;30.832;2023-03-14T00:39:17;99621.64;;;4.92;77.76
42003;BME280;27693;50.506;30.832;2023-03-14T00:40:21;99607.56;;;5.05;78.83
42003;BME280;27693;50.506;30.832;2023-03-14T00:41:24;99608.06;;;4.85;74.80
42003;BME280;27693;50.506;30.832;2023-03-14T00:42:28;99599.61;;;4.80;74.31
42003;BME280;27693;50.506;30.832;2023-03-14T00:43:32;99603.73;;;4.87;78.03
42003;BME280;27693;50.506;30.832;2023-03-14T00:44:35;99596.31;;;4.73;74.14
42003;BME280;27693;50.506;30.832;2023-03-14T00:45:39;99587.14;;;4.61;73.18
42003;BME280;27693;50.506;30.832;2023-03-14T00:46:42;99590.08;;;4.82;78.13
42003;BME280;27693;50.506;30.832;2023-03-14T00:47:44;99586.98;;;5.04;80.11
42003;BME280;27693;50.506;30.832;2023-03-14T00:48:48;99583.11;;;4.87;76.63
42003;BME280;27693;50.506;30.832;2023-03-14T00:49:51;99583.11;;;4.87;76.63
42003;BME280;27693;50.506;30.832;2023-03-14T00:50:54;99587.45;;;4.85;76.32
42003;BME280;27693;50.506;30.832;2023-03-14T00:51:56;99589.14;;;4.86;76.44
42003;BME280;27693;50.506;30.832;2023-03-14T00:52:59;99588.39;;;4.81;76.53
42003;BME280;27693;50.506;30.832;2023-03-14T00:54:01;99586.84;;;4.74;75.91
42003;BME280;27693;50.506;30.832;2023-03-14T00:55:06;99580.17;;;4.67;74.87
42003;BME280;27693;50.506;30.832;2023-03-14T00:56:11;99571.27;;;4.78;78.00
42003;BME280;27693;50.506;30.832;2023-03-14T00:57:14;99583.63;;;5.00;79.13
42003;BME280;27693;50.506;30.832;2023-03-14T00:58:18;99577.70;;;4.96;79.90
42003;BME280;27693;50.506;30.832;2023-03-14T00:59:22;99573.63;;;4.88;76.15
42003;BME280;27693;50.506;30.832;2023-03-14T01:00:24;99580.80;;;4.75;74.09
42003;BME280;27693;50.506;30.832;2023-03-14T01:01:27;99580.02;;;4.73;74.15
42003;BME280;27693;50.506;30.832;2023-03-14T01:02:30;99580.06;;;5.06;80.92
42003;BME280;27693;50.506;30.832;2023-03-14T01:03:32;99574.09;;;5.04;78.24
42003;BME280;27693;50.506;30.832;2023-03-14T01:04:35;99571.78;;;4.93;76.19
42003;BME280;27693;50.506;30.832;2023-03-14T01:05:39;99567.77;;;4.81;74.37
42003;BME280;27693;50.506;30.832;2023-03-14T01:06:43;99569.16;;;4.94;78.30
42003;BME280;27693;50.506;30.832;2023-03-14T01:07:47;99567.39;;;4.96;77.26
42003;BME280;27693;50.506;30.832;2023-03-14T01:08:49;99563.47;;;4.82;76.58
42003;BME280;27693;50.506;30.832;2023-03-14T01:09:53;99564.09;;;4.91;78.25
42003;BME280;27693;50.506;30.832;2023-03-14T01:10:56;99568.37;;;4.92;78.04
42003;BME280;27693;50.506;30.832;2023-03-14T01:11:59;99568.78;;;4.75;76.27
42003;BME280;27693;50.506;30.832;2023-03-14T01:13:02;99568.22;;;4.62;76.29
42003;BME280;27693;50.506;30.832;2023-03-14T01:14:04;99563.42;;;4.47;74.01
42003;BME280;27693;50.506;30.832;2023-03-14T01:15:08;99567.64;;;4.51;75.94
42003;BME280;27693;50.506;30.832;2023-03-14T01:16:12;99571.87;;;4.54;76.15
42003;BME280;27693;50.506;30.832;2023-03-14T01:17:15;99568.31;;;4.59;75.84
42003;BME280;27693;50.506;30.832;2023-03-14T01:18:18;99571.77;;;4.58;76.46
42003;BME280;27693;50.506;30.832;2023-03-14T01:19:21;99566.63;;;4.57;76.04
42003;BME280;27693;50.506;30.832;2023-03-14T01:20:24;99563.95;;;4.61;77.32
42003;BME280;27693;50.506;30.832;2023-03-14T01:21:31;99562.08;;;4.68;78.59
42003;BME280;27693;50.506;30.832;2023-03-14T01:22:33;99572.64;;;4.57;74.95
42003;BME280;27693;50.506;30.832;2023-03-14T01:23:37;99568.22;;;4.62;76.92
42003;BME280;27693;50.506;30.832;2023-03-14T01:24:40;99569.04;;;4.64;77.19
42003;BME280;27693;50.506;30.832;2023-03-14T01:25:42;99571.00;;;4.53;73.91
42003;BME280;27693;50.506;30.832;2023-03-14T01:26:45;99575.08;;;4.63;76.64
42003;BME280;27693;50.506;30.832;2023-03-14T01:27:47;99568.52;;;4.50;76.27
42003;BME280;27693;50.506;30.832;2023-03-14T01:28:52;99572.31;;;4.34;73.41
42003;BME280;27693;50.506;30.832;2023-03-14T01:29:54;99578.75;;;4.14;73.40
42003;BME280;27693;50.506;30.832;2023-03-14T01:31:02;99583.30;;;4.03;73.75
42003;BME280;27693;50.506;30.832;2023-03-14T01:32:04;99579.34;;;3.86;73.91
42003;BME280;27693;50.506;30.832;2023-03-14T01:33:07;99587.01;;;3.89;74.61
42003;BME280;27693;50.506;30.832;2023-03-14T01:34:10;99588.75;;;3.87;74.73
42003;BME280;27693;50.506;30.832;2023-03-14T01:35:12;99591.41;;;3.84;74.64
42003;BME280;27693;50.506;30.832;2023-03-14T01:36:15;99587.19;;;3.80;74.96
42003;BME280;27693;50.506;30.832;2023-03-14T01:37:18;99596.64;;;3.79;75.18
42003;BME280;27693;50.506;30.832;2023-03-14T01:38:22;99586.14;;;3.89;75.19
42003;BME280;27693;50.506;30.832;2023-03-14T01:39:24;99588.80;;;3.86;74.94
42003;BME280;27693;50.506;30.832;2023-03-14T01:40:27;99587.19;;;3.80;74.97
42003;BME280;27693;50.506;30.832;2023-03-14T01:41:31;99585.48;;;3.79;74.96
42003;BME280;27693;50.506;30.832;2023-03-14T01:42:34;99582.77;;;3.87;76.04
42003;BME280;27693;50.506;30.832;2023-03-14T01:43:36;99591.33;;;3.87;75.83
42003;BME280;27693;50.506;30.832;2023-03-14T01:44:54;99593.20;;;3.80;75.03
42003;BME280;27693;50.506;30.832;2023-03-14T01:47:14;99582.12;;;3.77;74.94
42003;BME280;27693;50.506;30.832;2023-03-14T01:48:18;99585.48;;;3.79;75.12
42003;BME280;27693;50.506;30.832;2023-03-14T01:50:38;99581.33;;;3.73;75.83
42003;BME280;27693;50.506;30.832;2023-03-14T01:51:44;99585.65;;;3.71;75.32
42003;BME280;27693;50.506;30.832;2023-03-14T01:52:48;99587.39;;;3.69;75.51
42003;BME280;27693;50.506;30.832;2023-03-14T01:53:54;99583.82;;;3.76;76.35
42003;BME280;27693;50.506;30.832;2023-03-14T01:55:03;99581.34;;;3.72;75.48
42003;BME280;27693;50.506;30.832;2023-03-14T01:56:05;99582.16;;;3.74;75.90
42003;BME280;27693;50.506;30.832;2023-03-14T01:57:23;99580.34;;;3.79;75.85
42003;BME280;27693;50.506;30.832;2023-03-14T01:58:27;99579.67;;;3.71;75.77
42003;BME280;27693;50.506;30.832;2023-03-14T01:59:33;99585.61;;;3.73;76.05
42003;BME280;27693;50.506;30.832;2023-03-14T02:00:36;99581.34;;;3.72;75.81
42003;BME280;27693;50.506;30.832;2023-03-14T02:01:41;99571.03;;;3.73;76.18
42003;BME280;27693;50.506;30.832;2023-03-14T02:02:47;99573.62;;;3.72;75.81
42003;BME280;27693;50.506;30.832;2023-03-14T02:03:56;99569.34;;;3.72;76.03
42003;BME280;27693;50.506;30.832;2023-03-14T02:05:02;99565.02;;;3.73;75.96
42003;BME280;27693;50.506;30.832;2023-03-14T02:06:09;99572.66;;;3.77;76.80
42003;BME280;27693;50.506;30.832;2023-03-14T02:07:20;99560.00;;;3.66;75.92
42003;BME280;27693;50.506;30.832;2023-03-14T02:08:28;99561.00;;;3.59;76.08
42003;BME280;27693;50.506;30.832;2023-03-14T02:09:33;99559.26;;;3.61;76.63
42003;BME280;27693;50.506;30.832;2023-03-14T02:10:41;99554.11;;;3.61;76.66
42003;BME280;27693;50.506;30.832;2023-03-14T02:11:43;99554.24;;;3.54;75.68
42003;BME280;27693;50.506;30.832;2023-03-14T02:12:53;99560.09;;;3.62;77.16
42003;BME280;27693;50.506;30.832;2023-03-14T02:13:59;99565.28;;;3.60;76.77
42003;BME280;27693;50.506;30.832;2023-03-14T02:15:23;99558.38;;;3.62;77.40
42003;BME280;27693;50.506;30.832;2023-03-14T02:16:36;99556.56;;;3.67;77.54
42003;BME280;27693;50.506;30.832;2023-03-14T02:17:42;99557.43;;;3.66;77.21
42003;BME280;27693;50.506;30.832;2023-03-14T02:18:50;99555.81;;;3.62;76.50
42003;BME280;27693;50.506;30.832;2023-03-14T02:20:14;99557.61;;;3.57;76.66
42003;BME280;27693;50.506;30.832;2023-03-14T02:22:46;99558.43;;;3.59;77.09
42003;BME280;27693;50.506;30.832;2023-03-14T02:24:19;99556.64;;;3.63;77.00
42003;BME280;27693;50.506;30.832;2023-03-14T02:25:38;99556.61;;;3.64;77.32
42003;BME280;27693;50.506;30.832;2023-03-14T02:27:00;99557.59;;;3.59;77.19
42003;BME280;27693;50.506;30.832;2023-03-14T02:27:48;99567.22;;;3.49;76.54
42003;BME280;27693;50.506;30.832;2023-03-14T02:28:52;99568.97;;;3.47;76.85
42003;BME280;27693;50.506;30.832;2023-03-14T02:30:25;99562.91;;;3.49;77.31
42003;BME280;27693;50.506;30.832;2023-03-14T02:31:28;99572.28;;;3.52;77.19
42003;BME280;27693;50.506;30.832;2023-03-14T02:32:33;99565.40;;;3.54;76.94
42003;BME280;27693;50.506;30.832;2023-03-14T02:33:37;99570.55;;;3.54;76.95
42003;BME280;27693;50.506;30.832;2023-03-14T02:34:42;99570.59;;;3.51;76.73
42003;BME280;27693;50.506;30.832;2023-03-14T02:35:53;99569.63;;;3.57;77.40
42003;BME280;27693;50.506;30.832;2023-03-14T02:36:57;99569.59;;;3.60;77.36
42003;BME280;27693;50.506;30.832;2023-03-14T02:39:40;99565.32;;;3.57;76.86
42003;BME280;27693;50.506;30.832;2023-03-14T02:40:44;99572.24;;;3.55;77.54
42003;BME280;27693;50.506;30.832;2023-03-14T02:41:46;99573.91;;;3.58;76.86
42003;BME280;27693;50.506;30.832;2023-03-14T02:42:51;99573.98;;;3.53;76.41
42003;BME280;27693;50.506;30.832;2023-03-14T02:43:54;99578.10;;;3.62;76.78
42003;BME280;27693;50.506;30.832;2023-03-14T02:46:18;99578.09;;;3.63;76.78
42003;BME280;27693;50.506;30.832;2023-03-14T02:47:26;99577.14;;;3.67;76.96
42003;BME280;27693;50.506;30.832;2023-03-14T02:48:34;99572.83;;;3.70;77.04
42003;BME280;27693;50.506;30.832;2023-03-14T02:49:33;99570.17;;;3.73;76.88
42003;BME280;27693;50.506;30.832;2023-03-14T02:50:37;99568.55;;;3.68;76.49
42003;BME280;27693;50.506;30.832;2023-03-14T02:51:41;99571.16;;;3.67;76.60
42003;BME280;27693;50.506;30.832;2023-03-14T02:52:45;99571.08;;;3.70;77.36
42003;BME280;27693;50.506;30.832;2023-03-14T02:53:47;99570.38;;;3.63;76.98
42003;BME280;27693;50.506;30.832;2023-03-14T02:54:50;99575.56;;;3.60;77.00
42003;BME280;27693;50.506;30.832;2023-03-14T02:55:52;99576.40;;;3.61;77.46
42003;BME280;27693;50.506;30.832;2023-03-14T02:56:55;99577.35;;;3.57;76.66
42003;BME280;27693;50.506;30.832;2023-03-14T02:57:59;99572.16;;;3.58;76.87
42003;BME280;27693;50.506;30.832;2023-03-14T02:59:05;99576.52;;;3.55;76.90
42003;BME280;27693;50.506;30.832;2023-03-14T03:00:16;99579.13;;;3.53;76.62
42003;BME280;27693;50.506;30.832;2023-03-14T03:01:19;99566.97;;;3.61;77.17
42003;BME280;27693;50.506;30.832;2023-03-14T03:02:21;99573.08;;;3.56;76.74
42003;BME280;27693;50.506;30.832;2023-03-14T03:03:24;99573.08;;;3.56;77.01
42003;BME280;27693;50.506;30.832;2023-03-14T03:04:26;99575.73;;;3.51;76.76
42003;BME280;27693;50.506;30.832;2023-03-14T03:05:29;99586.14;;;3.45;76.67
42003;BME280;27693;50.506;30.832;2023-03-14T03:06:32;99579.21;;;3.50;77.20
42003;BME280;27693;50.506;30.832;2023-03-14T03:07:35;99579.13;;;3.53;77.75
42003;BME280;27693;50.506;30.832;2023-03-14T03:08:37;99575.61;;;3.57;78.42
42003;BME280;27693;50.506;30.832;2023-03-14T03:09:41;99579.05;;;3.58;77.19
42003;BME280;27693;50.506;30.832;2023-03-14T03:10:43;99584.95;;;3.63;76.93
42003;BME280;27693;50.506;30.832;2023-03-14T03:11:46;99573.82;;;3.62;77.40
42003;BME280;27693;50.506;30.832;2023-03-14T03:12:50;99573.86;;;3.59;77.06
42003;BME280;27693;50.506;30.832;2023-03-14T03:13:56;99572.16;;;3.58;76.84
42003;BME280;27693;50.506;30.832;2023-03-14T03:14:59;99571.17;;;3.65;77.61
42003;BME280;27693;50.506;30.832;2023-03-14T03:16:02;99566.11;;;3.61;76.92
42003;BME280;27693;50.506;30.832;2023-03-14T03:17:05;99564.69;;;3.46;76.14
42003;BME280;27693;50.506;30.832;2023-03-14T03:18:09;99564.69;;;3.46;76.14
42003;BME280;27693;50.506;30.832;2023-03-14T03:19:11;99575.73;;;3.51;77.02
42003;BME280;27693;50.506;30.832;2023-03-14T03:20:16;99568.80;;;3.55;76.87
42003;BME280;27693;50.506;30.832;2023-03-14T03:21:19;99568.80;;;3.56;76.99
42003;BME280;27693;50.506;30.832;2023-03-14T03:22:23;99567.22;;;3.49;76.08
42003;BME280;27693;50.506;30.832;2023-03-14T03:23:26;99560.42;;;3.45;77.09
42003;BME280;27693;50.506;30.832;2023-03-14T03:24:28;99557.84;;;3.45;76.79
42003;BME280;27693;50.506;30.832;2023-03-14T03:25:31;99555.36;;;3.42;76.74
42003;BME280;27693;50.506;30.832;2023-03-14T03:26:36;99558.09;;;3.32;76.19
42003;BME280;27693;50.506;30.832;2023-03-14T03:27:40;99566.59;;;3.36;77.75
42003;BME280;27693;50.506;30.832;2023-03-14T03:28:44;99560.66;;;3.32;76.72
42003;BME280;27693;50.506;30.832;2023-03-14T03:29:47;99555.55;;;3.31;77.10
42003;BME280;27693;50.506;30.832;2023-03-14T03:30:50;99551.99;;;3.38;77.43
42003;BME280;27693;50.506;30.832;2023-03-14T03:31:53;99554.64;;;3.33;76.81
42003;BME280;27693;50.506;30.832;2023-03-14T03:32:55;99552.90;;;3.35;76.97
42003;BME280;27693;50.506;30.832;2023-03-14T03:33:58;99558.13;;;3.31;76.47
42003;BME280;27693;50.506;30.832;2023-03-14T03:35:03;99559.83;;;3.32;77.15
42003;BME280;27693;50.506;30.832;2023-03-14T03:36:08;99553.81;;;3.31;78.18
42003;BME280;27693;50.506;30.832;2023-03-14T03:37:12;99547.01;;;3.29;76.70
42003;BME280;27693;50.506;30.832;2023-03-14T03:38:16;99551.40;;;3.24;75.95
42003;BME280;27693;50.506;30.832;2023-03-14T03:39:19;99547.05;;;3.27;76.35
42003;BME280;27693;50.506;30.832;2023-03-14T03:40:22;99550.61;;;3.20;76.09
42003;BME280;27693;50.506;30.832;2023-03-14T03:41:25;99548.08;;;3.17;75.83
42003;BME280;27693;50.506;30.832;2023-03-14T03:42:27;99555.75;;;3.20;76.20
42003;BME280;27693;50.506;30.832;2023-03-14T03:43:30;99550.65;;;3.17;77.07
42003;BME280;27693;50.506;30.832;2023-03-14T03:44:33;99555.75;;;3.20;76.75
42003;BME280;27693;50.506;30.832;2023-03-14T03:45:36;99551.55;;;3.14;75.40
42003;BME280;27693;50.506;30.832;2023-03-14T03:46:40;99543.87;;;3.13;76.17
42003;BME280;27693;50.506;30.832;2023-03-14T03:47:43;99550.72;;;3.14;76.03
42003;BME280;27693;50.506;30.832;2023-03-14T03:48:46;99547.28;;;3.15;76.38
42003;BME280;27693;50.506;30.832;2023-03-14T03:49:49;99554.16;;;3.13;75.34
42003;BME280;27693;50.506;30.832;2023-03-14T03:50:51;99549.02;;;3.13;75.86
42003;BME280;27693;50.506;30.832;2023-03-14T03:51:56;99549.78;;;3.18;77.11
42003;BME280;27693;50.506;30.832;2023-03-14T03:52:58;99553.93;;;3.25;76.81
42003;BME280;27693;50.506;30.832;2023-03-14T03:54:02;99555.79;;;3.17;75.43
42003;BME280;27693;50.506;30.832;2023-03-14T03:55:07;99561.61;;;3.27;77.21
42003;BME280;27693;50.506;30.832;2023-03-14T03:56:11;99544.52;;;3.26;75.45
42003;BME280;27693;50.506;30.832;2023-03-14T03:57:14;99550.53;;;3.23;75.47
42003;BME280;27693;50.506;30.832;2023-03-14T03:58:17;99556.58;;;3.22;75.89
42003;BME280;27693;50.506;30.832;2023-03-14T03:59:19;99554.92;;;3.18;75.60
42003;BME280;27693;50.506;30.832;2023-03-14T04:00:23;99550.72;;;3.14;75.54
42003;BME280;27693;50.506;30.832;2023-03-14T04:01:26;99548.30;;;3.04;75.24
42003;BME280;27693;50.506;30.832;2023-03-14T04:02:29;99545.80;;;3.01;75.22
42003;BME280;27693;50.506;30.832;2023-03-14T04:03:32;99545.84;;;2.98;75.87
42003;BME280;27693;50.506;30.832;2023-03-14T04:04:35;99549.36;;;2.94;75.79
42003;BME280;27693;50.506;30.832;2023-03-14T04:05:39;99548.48;;;2.94;75.67
42003;BME280;27693;50.506;30.832;2023-03-14T04:06:44;99557.11;;;2.91;75.40
42003;BME280;27693;50.506;30.832;2023-03-14T04:07:47;99550.16;;;2.96;76.88
42003;BME280;27693;50.506;30.832;2023-03-14T04:08:51;99551.09;;;2.92;76.35
42003;BME280;27693;50.506;30.832;2023-03-14T04:10:09;99557.11;;;2.91;76.23
42003;BME280;27693;50.506;30.832;2023-03-14T04:11:13;99547.70;;;2.90;76.58
42003;BME280;27693;50.506;30.832;2023-03-14T04:12:29;99549.39;;;2.91;76.22
42003;BME280;27693;50.506;30.832;2023-03-14T04:13:34;99547.62;;;2.95;76.69
42003;BME280;27693;50.506;30.832;2023-03-14T04:14:36;99550.95;;;3.01;77.29
42003;BME280;27693;50.506;30.832;2023-03-14T04:15:46;99563.69;;;3.06;77.61
42003;BME280;27693;50.506;30.832;2023-03-14T04:16:51;99560.39;;;2.99;76.85
42003;BME280;27693;50.506;30.832;2023-03-14T04:17:58;99557.00;;;2.97;76.83
42003;BME280;27693;50.506;30.832;2023-03-14T04:19:01;99559.64;;;2.94;76.95
42003;BME280;27693;50.506;30.832;2023-03-14T04:20:07;99560.50;;;2.93;76.45
42003;BME280;27693;50.506;30.832;2023-03-14T04:21:11;99559.67;;;2.91;77.45
42003;BME280;27693;50.506;30.832;2023-03-14T04:22:15;99558.73;;;2.92;76.63
42003;BME280;27693;50.506;30.832;2023-03-14T04:23:24;99558.73;;;2.95;76.98
42003;BME280;27693;50.506;30.832;2023-03-14T04:24:27;99555.58;;;2.79;75.70
42003;BME280;27693;50.506;30.832;2023-03-14T04:25:31;99556.38;;;2.83;76.47
42003;BME280;27693;50.506;30.832;2023-03-14T04:26:36;99551.20;;;2.86;76.71
42003;BME280;27693;50.506;30.832;2023-03-14T04:27:39;99550.41;;;2.82;76.14
42003;BME280;27693;50.506;30.832;2023-03-14T04:28:43;99559.78;;;2.85;75.98
42003;BME280;27693;50.506;30.832;2023-03-14T04:29:46;99547.04;;;2.79;75.53
42003;BME280;27693;50.506;30.832;2023-03-14T04:30:50;99547.04;;;2.79;75.53
42003;BME280;27693;50.506;30.832;2023-03-14T04:31:55;99553.08;;;2.75;75.42
42003;BME280;27693;50.506;30.832;2023-03-14T04:32:58;99544.50;;;2.76;76.27
42003;BME280;27693;50.506;30.832;2023-03-14T04:34:02;99544.50;;;2.76;76.27
42003;BME280;27693;50.506;30.832;2023-03-14T04:35:07;99546.27;;;2.72;76.69
42003;BME280;27693;50.506;30.832;2023-03-14T04:36:11;99553.95;;;2.75;76.48
42003;BME280;27693;50.506;30.832;2023-03-14T04:37:14;99544.47;;;2.79;77.37
42003;BME280;27693;50.506;30.832;2023-03-14T04:38:19;99547.08;;;2.77;76.51
42003;BME280;27693;50.506;30.832;2023-03-14T04:39:22;99553.08;;;2.76;76.31
42003;BME280;27693;50.506;30.832;2023-03-14T04:40:43;99549.71;;;2.73;75.84
42003;BME280;27693;50.506;30.832;2023-03-14T04:41:47;99546.27;;;2.74;76.38
42003;BME280;27693;50.506;30.832;2023-03-14T04:42:49;99547.95;;;2.75;76.46
42003;BME280;27693;50.506;30.832;2023-03-14T04:43:52;99543.81;;;2.66;75.76
42003;BME280;27693;50.506;30.832;2023-03-14T04:44:56;99554.95;;;2.66;76.96
42003;BME280;27693;50.506;30.832;2023-03-14T04:46:00;99551.31;;;2.80;78.22
42003;BME280;27693;50.506;30.832;2023-03-14T04:47:02;99537.59;;;2.81;77.53
42003;BME280;27693;50.506;30.832;2023-03-14T04:48:05;99540.23;;;2.76;76.42
42003;BME280;27693;50.506;30.832;2023-03-14T04:49:08;99541.94;;;2.77;76.55
42003;BME280;27693;50.506;30.832;2023-03-14T04:50:11;99540.16;;;2.79;76.83
42003;BME280;27693;50.506;30.832;2023-03-14T04:51:14;99528.19;;;2.80;75.97
42003;BME280;27693;50.506;30.832;2023-03-14T04:52:16;99536.69;;;2.82;76.59
42003;BME280;27693;50.506;30.832;2023-03-14T04:53:19;99522.25;;;2.75;75.16
42003;BME280;27693;50.506;30.832;2023-03-14T04:54:23;99529.16;;;2.73;75.65
42003;BME280;27693;50.506;30.832;2023-03-14T04:55:28;99528.19;;;2.80;76.22
42003;BME280;27693;50.506;30.832;2023-03-14T04:56:31;99517.91;;;2.78;76.05
42003;BME280;27693;50.506;30.832;2023-03-14T04:57:34;99533.18;;;2.87;76.63
42003;BME280;27693;50.506;30.832;2023-03-14T04:58:37;99522.75;;;2.97;78.01
42003;BME280;27693;50.506;30.832;2023-03-14T04:59:40;99524.53;;;2.93;76.91
42003;BME280;27693;50.506;30.832;2023-03-14T05:00:45;99522.75;;;2.97;76.54
42003;BME280;27693;50.506;30.832;2023-03-14T05:01:50;99522.83;;;2.92;76.32
42003;BME280;27693;50.506;30.832;2023-03-14T05:03:12;99522.22;;;2.78;75.21
42003;BME280;27693;50.506;30.832;2023-03-14T05:04:18;99521.20;;;2.88;75.64
42003;BME280;27693;50.506;30.832;2023-03-14T05:05:38;99511.94;;;2.78;75.29
42003;BME280;27693;50.506;30.832;2023-03-14T05:06:43;99511.94;;;2.78;76.19
42003;BME280;27693;50.506;30.832;2023-03-14T05:07:50;99510.20;;;2.80;75.94
42003;BME280;27693;50.506;30.832;2023-03-14T05:09:01;99511.00;;;2.82;76.31
42003;BME280;27693;50.506;30.832;2023-03-14T05:10:22;99512.77;;;2.80;75.00
42003;BME280;27693;50.506;30.832;2023-03-14T05:11:45;99505.14;;;2.75;74.09
42003;BME280;27693;50.506;30.832;2023-03-14T05:12:52;99492.33;;;2.74;74.41
42003;BME280;27693;50.506;30.832;2023-03-14T05:13:59;99507.70;;;2.75;74.02
42003;BME280;27693;50.506;30.832;2023-03-14T05:15:10;99502.50;;;2.78;73.91
42003;BME280;27693;50.506;30.832;2023-03-14T05:16:14;99501.73;;;2.73;74.01
42003;BME280;27693;50.506;30.832;2023-03-14T05:17:18;99506.91;;;2.71;73.82
42003;BME280;27693;50.506;30.832;2023-03-14T05:18:23;99510.31;;;2.74;73.91
42003;BME280;27693;50.506;30.832;2023-03-14T05:19:30;99506.84;;;2.75;73.77
42003;BME280;27693;50.506;30.832;2023-03-14T05:20:41;99503.40;;;2.76;74.10
42003;BME280;27693;50.506;30.832;2023-03-14T05:22:02;99511.90;;;2.81;74.41
42003;BME280;27693;50.506;30.832;2023-03-14T05:23:23;99509.23;;;2.85;73.69
42003;BME280;27693;50.506;30.832;2023-03-14T05:24:39;99506.66;;;2.87;74.01
42003;BME280;27693;50.506;30.832;2023-03-14T05:25:43;99503.25;;;2.85;74.13
42003;BME280;27693;50.506;30.832;2023-03-14T05:27:06;99508.23;;;2.94;73.80
42003;BME280;27693;50.506;30.832;2023-03-14T05:28:17;99501.40;;;2.93;73.11
42003;BME280;27693;50.506;30.832;2023-03-14T05:29:21;99509.91;;;2.95;72.66
42003;BME280;27693;50.506;30.832;2023-03-14T05:30:29;99509.91;;;2.95;73.16
42003;BME280;27693;50.506;30.832;2023-03-14T05:31:34;99491.00;;;2.99;73.21
42003;BME280;27693;50.506;30.832;2023-03-14T05:32:44;99513.27;;;3.00;72.94
42003;BME280;27693;50.506;30.832;2023-03-14T05:33:51;99516.55;;;3.09;72.93
42003;BME280;27693;50.506;30.832;2023-03-14T05:34:56;99504.49;;;3.11;73.12
42003;BME280;27693;50.506;30.832;2023-03-14T05:36:06;99519.88;;;3.14;72.94
42003;BME280;27693;50.506;30.832;2023-03-14T05:37:10;99508.64;;;3.18;72.03
42003;BME280;27693;50.506;30.832;2023-03-14T05:38:15;99514.54;;;3.23;72.11
42003;BME280;27693;50.506;30.832;2023-03-14T05:39:31;99525.65;;;3.25;71.74
42003;BME280;27693;50.506;30.832;2023-03-14T05:40:37;99516.12;;;3.30;71.49
42003;BME280;27693;50.506;30.832;2023-03-14T05:41:44;99523.03;;;3.28;71.16
42003;BME280;27693;50.506;30.832;2023-03-14T05:42:55;99519.52;;;3.32;71.49
42003;BME280;27693;50.506;30.832;2023-03-14T05:44:11;99529.80;;;3.32;71.81
42003;BME280;27693;50.506;30.832;2023-03-14T05:45:32;99532.38;;;3.32;71.13
42003;BME280;27693;50.506;30.832;2023-03-14T05:46:44;99524.58;;;3.37;71.25
42003;BME280;27693;50.506;30.832;2023-03-14T05:48:06;99534.90;;;3.35;71.17
42003;BME280;27693;50.506;30.832;2023-03-14T05:49:10;99534.83;;;3.39;70.50
42003;BME280;27693;50.506;30.832;2023-03-14T05:50:31;99533.00;;;3.45;70.52
42003;BME280;27693;50.506;30.832;2023-03-14T05:51:52;99538.05;;;3.50;70.50
42003;BME280;27693;50.506;30.832;2023-03-14T05:52:59;99533.62;;;3.57;70.45